PWSweather.com
Personal Weather Stations
Station Observations
TARRYHILL
Tarrytown, NY 10591

Tarrytown, NY 10591

Lat: 41.05185, Lon: -73.85296

Elevation: 341

Station Type: Davis Vantage Vue

Latest ConditionsUpdated 4:30:01 PM EDT Friday, May 25, 2018
Currently Today's Max Today's Min Today's Average
Temperature 85.6°F29.8°C 85.7°F29.8°C 63.4°F17.4°C 73.7°F23.2°C
Dew Point 56.4°F13.6°C 57.2°F14.0°C 48.4°F9.1°C 53.3°F11.8°C
Winds 8.1 mph SW13.0 kmh SW 8.1 mph SW13.0 kmh SW - 3.2 mph 5.1 kmh
Wind Gusts 17.3 mph27.8 kmh 17.3 mph27.8 kmh - -
Humidity 37% 68% 32% 51%
Pressure 29.85 in1010.8 mb 30.09 in1019.0 mb 29.85 in1010.8 mb -
Hour Temp Dew Point Humidity Winds Wind Gusts Pressure Precip Precip Rate Daily Precip Total
04:30 PM 85.6°F29.8°C 56.4°F13.6°C 37% 8.1 mph SW13.0 kmh SW 17.3 mph27.8 kmh 29.85 in1010.8 mb - 0.00 in0.0 mm 0.00 in0.0 mm
04:00 PM 85.5°F29.7°C 54.7°F12.6°C 35% 8.1 mph SSW13.0 kmh SSW 12.7 mph20.4 kmh 29.86 in1011.2 mb - 0.00 in0.0 mm 0.00 in0.0 mm
03:30 PM 85.4°F29.7°C 55.4°F13.0°C 36% 5.8 mph SW9.3 kmh SW 8.1 mph13.0 kmh 29.88 in1011.9 mb - 0.00 in0.0 mm 0.00 in0.0 mm
03:00 PM 85.7°F29.8°C 54.1°F12.3°C 34% 5.8 mph SW9.3 kmh SW 8.1 mph13.0 kmh 29.89 in1012.2 mb - 0.00 in0.0 mm 0.00 in0.0 mm
02:30 PM 85.6°F29.8°C 52.4°F11.3°C 32% 8.1 mph SSW13.0 kmh SSW 13.8 mph22.2 kmh 29.90 in1012.5 mb - 0.00 in0.0 mm 0.00 in0.0 mm
02:00 PM 85.5°F29.7°C 53.1°F11.7°C 33% 3.5 mph SW5.6 kmh SW 6.9 mph11.1 kmh 29.91 in1012.9 mb - 0.00 in0.0 mm 0.00 in0.0 mm
01:30 PM 84.9°F29.4°C 54.2°F12.3°C 35% 5.8 mph SSW9.3 kmh SSW 11.5 mph18.5 kmh 29.92 in1013.2 mb - 0.00 in0.0 mm 0.00 in0.0 mm
01:00 PM 83.9°F28.8°C 53.3°F11.8°C 35% 5.8 mph WSW9.3 kmh WSW 8.1 mph13.0 kmh 29.93 in1013.5 mb - 0.00 in0.0 mm 0.00 in0.0 mm
12:30 PM 84.5°F29.2°C 54.6°F12.6°C 36% 5.8 mph S9.3 kmh S 11.5 mph18.5 kmh 29.94 in1013.9 mb - 0.00 in0.0 mm 0.00 in0.0 mm
12:00 PM 84.2°F29.0°C 55.9°F13.3°C 38% 2.3 mph WSW3.7 kmh WSW 3.5 mph5.6 kmh 29.95 in1014.2 mb - 0.00 in0.0 mm 0.00 in0.0 mm
11:30 AM 83.0°F28.3°C 56.9°F13.8°C 41% 1.2 mph SSE1.9 kmh SSE 2.3 mph3.7 kmh 29.97 in1014.9 mb - 0.00 in0.0 mm 0.00 in0.0 mm
11:00 AM 81.1°F27.3°C 57.2°F14.0°C 44% 2.3 mph SE3.7 kmh SE 4.6 mph7.4 kmh 29.98 in1015.2 mb - 0.00 in0.0 mm 0.00 in0.0 mm
10:30 AM 79.2°F26.2°C 56.0°F13.3°C 45% 3.5 mph S5.6 kmh S 6.9 mph11.1 kmh 30.00 in1015.9 mb - 0.00 in0.0 mm 0.00 in0.0 mm
10:00 AM 77.1°F25.1°C 56.5°F13.6°C 49% 2.3 mph SSW3.7 kmh SSW 3.5 mph5.6 kmh 30.01 in1016.3 mb - 0.00 in0.0 mm 0.00 in0.0 mm
09:30 AM 74.3°F23.5°C 56.6°F13.7°C 54% 1.2 mph SSW1.9 kmh SSW 3.5 mph5.6 kmh 30.02 in1016.6 mb - 0.00 in0.0 mm 0.00 in0.0 mm
09:00 AM 72.2°F22.3°C 56.1°F13.4°C 57% 2.3 mph SSW3.7 kmh SSW 3.5 mph5.6 kmh 30.03 in1016.9 mb - 0.00 in0.0 mm 0.00 in0.0 mm
08:30 AM 69.9°F21.1°C 54.4°F12.4°C 58% 4.6 mph SSW7.4 kmh SSW 6.9 mph11.1 kmh 30.03 in1016.9 mb - 0.00 in0.0 mm 0.00 in0.0 mm
08:00 AM 68.1°F20.1°C 54.2°F12.3°C 61% 2.3 mph SSW3.7 kmh SSW 3.5 mph5.6 kmh 30.04 in1017.3 mb - 0.00 in0.0 mm 0.00 in0.0 mm
07:30 AM 65.7°F18.7°C 52.7°F11.5°C 63% 2.3 mph SSW3.7 kmh SSW 3.5 mph5.6 kmh 30.04 in1017.3 mb - 0.00 in0.0 mm 0.00 in0.0 mm
07:00 AM 65.1°F18.4°C 52.6°F11.4°C 64% 3.5 mph SSW5.6 kmh SSW 5.8 mph9.3 kmh 30.05 in1017.6 mb - 0.00 in0.0 mm 0.00 in0.0 mm
06:30 AM 64.1°F17.8°C 52.9°F11.6°C 67% 1.2 mph SW1.9 kmh SW 4.6 mph7.4 kmh 30.06 in1017.9 mb - 0.00 in0.0 mm 0.00 in0.0 mm
06:00 AM 63.9°F17.7°C 52.3°F11.3°C 66% 2.3 mph SSW3.7 kmh SSW 4.6 mph7.4 kmh 30.06 in1017.9 mb - 0.00 in0.0 mm 0.00 in0.0 mm
05:30 AM 63.4°F17.4°C 52.7°F11.5°C 68% 1.2 mph SW1.9 kmh SW 2.3 mph3.7 kmh 30.05 in1017.6 mb - 0.00 in0.0 mm 0.00 in0.0 mm
05:00 AM 64.2°F17.9°C 52.2°F11.2°C 65% 2.3 mph SSW3.7 kmh SSW 4.6 mph7.4 kmh 30.05 in1017.6 mb - 0.00 in0.0 mm 0.00 in0.0 mm
04:30 AM 64.7°F18.2°C 52.2°F11.2°C 64% 2.3 mph SW3.7 kmh SW 5.8 mph9.3 kmh 30.05 in1017.6 mb - 0.00 in0.0 mm 0.00 in0.0 mm
04:00 AM 64.6°F18.1°C 51.7°F10.9°C 63% 2.3 mph WSW3.7 kmh WSW 5.8 mph9.3 kmh 30.05 in1017.6 mb - 0.00 in0.0 mm 0.00 in0.0 mm
03:30 AM 65.1°F18.4°C 51.7°F10.9°C 62% Calm Calm 2.3 mph3.7 kmh 30.06 in1017.9 mb - 0.00 in0.0 mm 0.00 in0.0 mm
03:00 AM 65.7°F18.7°C 51.4°F10.8°C 60% Calm Calm -- 30.06 in1017.9 mb - 0.00 in0.0 mm 0.00 in0.0 mm
02:30 AM 66.2°F19.0°C 51.0°F10.6°C 58% 1.2 mph WSW1.9 kmh WSW 1.2 mph1.9 kmh 30.06 in1017.9 mb - 0.00 in0.0 mm 0.00 in0.0 mm
02:00 AM 66.4°F19.1°C 50.7°F10.4°C 57% 2.3 mph SW3.7 kmh SW 4.6 mph7.4 kmh 30.07 in1018.3 mb - 0.00 in0.0 mm 0.00 in0.0 mm
01:30 AM 66.6°F19.2°C 50.4°F10.2°C 56% Calm Calm 1.2 mph1.9 kmh 30.08 in1018.6 mb - 0.00 in0.0 mm 0.00 in0.0 mm
01:00 AM 67.9°F19.9°C 49.7°F9.8°C 52% 1.2 mph SSE1.9 kmh SSE 2.3 mph3.7 kmh 30.08 in1018.6 mb - 0.00 in0.0 mm 0.00 in0.0 mm
12:30 AM 67.7°F19.8°C 48.4°F9.1°C 50% 4.6 mph SSW7.4 kmh SSW 6.9 mph11.1 kmh 30.08 in1018.6 mb - 0.00 in0.0 mm 0.00 in0.0 mm
12:00 AM 68.4°F20.2°C 48.5°F9.2°C 49% 2.3 mph SSW3.7 kmh SSW 3.5 mph5.6 kmh 30.09 in1019.0 mb - 0.00 in0.0 mm 0.00 in0.0 mm